Time;durP1;ratioP1;P1;durP2;ratioP2;P2;SDS_P1;SDS_P2;PMS_P1;PMS_P2;Temp;Humidity;BMP_temperature;BMP_pressure;BME280_temperature;BME280_humidity;BME280_pressure;Samples;Min_cycle;Max_cycle;Signal;HPM_P1;HPM_P2
2022/07/03 00:00:43;;;;;;;66.07;2.80;;;21.40;1.00;;;;;;6266363;23;20840;-84
2022/07/03 00:03:09;;;;;;;66.67;3.03;;;21.40;1.00;;;;;;6240876;23;20152;-84
2022/07/03 00:05:35;;;;;;;66.50;3.00;;;21.40;1.00;;;;;;6267293;23;20140;-84
2022/07/03 00:08:03;;;;;;;66.20;3.33;;;21.30;1.00;;;;;;6240555;23;20172;-84
2022/07/03 00:10:28;;;;;;;66.60;3.00;;;21.30;1.00;;;;;;6267175;23;20393;-84
2022/07/03 00:12:54;;;;;;;68.77;3.23;;;21.30;1.00;;;;;;6266729;23;20410;-84
2022/07/03 00:15:20;;;;;;;66.30;3.47;;;21.20;1.00;;;;;;6266604;23;20484;-84
2022/07/03 00:17:46;;;;;;;67.30;3.20;;;21.20;1.00;;;;;;6267126;22;20156;-85
2022/07/03 00:20:11;;;;;;;68.20;3.13;;;21.20;1.10;;;;;;6264543;23;20136;-84
2022/07/03 00:22:42;;;;;;;66.07;2.90;;;21.10;1.60;;;;;;6240030;23;20584;-84
2022/07/03 00:25:12;;;;;;;70.97;3.47;;;21.10;2.90;;;;;;6240969;23;20485;-84
2022/07/03 00:27:39;;;;;;;67.40;2.77;;;21.10;3.30;;;;;;6267350;22;20399;-84
2022/07/03 00:30:10;;;;;;;67.23;3.50;;;21.00;3.90;;;;;;6267624;23;20375;-84
2022/07/03 00:32:39;;;;;;;69.23;3.20;;;21.00;3.50;;;;;;6239984;23;20410;-84
2022/07/03 00:35:06;;;;;;;67.43;3.37;;;20.90;4.10;;;;;;6266574;23;20363;-85
2022/07/03 00:37:32;;;;;;;69.47;3.27;;;20.90;5.00;;;;;;6266576;22;20402;-85
2022/07/03 00:39:58;;;;;;;67.47;3.47;;;20.90;4.70;;;;;;6240120;23;20414;-84
2022/07/03 00:42:24;;;;;;;67.00;3.27;;;20.90;6.50;;;;;;6240376;23;20171;-84
2022/07/03 00:44:52;;;;;;;67.50;3.47;;;20.90;7.10;;;;;;6266833;23;20371;-84
2022/07/03 00:47:20;;;;;;;66.67;3.10;;;20.90;8.80;;;;;;6266537;22;20474;-84
2022/07/03 00:49:48;;;;;;;67.57;3.87;;;20.80;10.20;;;;;;6266891;23;20374;-84
2022/07/03 00:52:15;;;;;;;66.40;4.03;;;20.80;12.50;;;;;;6240385;23;20375;-84
2022/07/03 00:54:55;;;;;;;70.60;7.97;;;20.70;14.00;;;;;;6266466;23;20843;-84
2022/07/03 00:57:22;;;;;;;68.43;5.37;;;20.70;17.40;;;;;;6266811;22;20704;-84
2022/07/03 00:59:48;;;;;;;68.97;7.50;;;20.70;17.50;;;;;;6266954;23;20395;-84
2022/07/03 01:02:40;;;;;;;68.40;8.80;;;20.70;17.50;;;;;;6267074;23;20728;-84
2022/07/03 01:05:47;;;;;;;68.50;8.03;;;20.80;18.00;;;;;;6240136;23;20387;-84
2022/07/03 01:08:49;;;;;;;69.20;8.57;;;20.80;19.40;;;;;;6216058;23;20401;-84
2022/07/03 01:11:26;;;;;;;73.60;10.67;;;20.80;20.20;;;;;;6240399;23;20366;-84
2022/07/03 01:14:21;;;;;;;69.30;11.73;;;20.70;21.70;;;;;;6266502;23;20386;-84
2022/07/03 01:17:11;;;;;;;70.10;12.97;;;20.80;22.50;;;;;;6239983;23;20422;-84
2022/07/03 01:19:38;;;;;;;69.70;12.83;;;20.70;22.60;;;;;;6239788;23;20359;-84
2022/07/03 01:22:25;;;;;;;72.07;16.60;;;20.70;24.10;;;;;;6239183;23;20371;-84
2022/07/03 01:25:11;;;;;;;72.00;15.57;;;20.60;25.40;;;;;;6266445;23;20347;-84
2022/07/03 01:27:42;;;;;;;74.80;18.07;;;20.60;28.10;;;;;;6265865;22;20404;-84
2022/07/03 01:30:10;;;;;;;70.17;12.63;;;20.50;28.90;;;;;;6266183;23;20383;-84
2022/07/03 01:32:50;;;;;;;71.07;14.53;;;20.40;31.30;;;;;;6266369;23;21010;-84
2022/07/03 01:35:21;;;;;;;68.70;11.17;;;20.40;31.80;;;;;;6266776;23;20426;-84
2022/07/03 01:37:50;;;;;;;71.07;11.70;;;20.40;33.60;;;;;;6266457;22;20397;-84
2022/07/03 01:40:17;;;;;;;71.57;9.23;;;20.30;35.00;;;;;;6239217;23;20372;-84
2022/07/03 01:42:45;;;;;;;67.97;9.27;;;20.30;36.10;;;;;;6266307;23;20876;-84
2022/07/03 01:45:14;;;;;;;70.30;9.10;;;20.30;36.50;;;;;;6266290;23;20363;-84
2022/07/03 01:47:41;;;;;;;68.60;8.70;;;20.30;37.20;;;;;;6239867;23;20405;-84
2022/07/03 01:50:11;;;;;;;68.40;8.40;;;20.30;37.60;;;;;;6239637;23;20401;-84
2022/07/03 01:52:41;;;;;;;68.17;6.90;;;20.20;40.20;;;;;;6266486;23;20458;-84
2022/07/03 01:55:09;;;;;;;67.07;6.80;;;20.20;39.40;;;;;;6266299;23;20363;-84
2022/07/03 01:57:49;;;;;;;70.17;7.00;;;20.20;40.10;;;;;;6265559;22;20393;-84
2022/07/03 02:00:20;;;;;;;67.40;6.20;;;20.20;38.80;;;;;;6265914;23;20346;-84
2022/07/03 02:03:03;;;;;;;68.57;6.50;;;20.20;38.00;;;;;;6265691;23;20351;-84
2022/07/03 02:05:33;;;;;;;67.90;5.90;;;20.20;39.90;;;;;;6239908;23;20366;-84
2022/07/03 02:08:25;;;;;;;67.13;5.47;;;20.20;41.20;;;;;;6267531;22;20387;-84
2022/07/03 02:11:22;;;;;;;66.53;4.23;;;20.10;41.20;;;;;;6267946;23;20358;-84
2022/07/03 02:14:01;;;;;;;68.63;5.03;;;20.10;42.20;;;;;;6255455;23;20408;-84
2022/07/03 02:16:27;;;;;;;67.50;4.80;;;20.10;43.10;;;;;;6268285;22;20354;-84
2022/07/03 02:18:58;;;;;;;67.57;4.47;;;20.10;44.80;;;;;;6267701;23;20371;-84
2022/07/03 02:21:28;;;;;;;68.13;4.30;;;20.10;44.60;;;;;;6268657;23;20367;-84
2022/07/03 02:23:59;;;;;;;72.20;4.70;;;20.00;44.40;;;;;;6268133;23;20354;-84
2022/07/03 02:26:39;;;;;;;69.07;4.90;;;20.00;44.90;;;;;;6255537;22;20459;-83
2022/07/03 02:29:14;;;;;;;66.93;4.40;;;20.00;45.50;;;;;;6281445;22;20357;-84
2022/07/03 02:31:53;;;;;;;67.67;4.90;;;19.90;46.10;;;;;;6280662;22;20341;-84
2022/07/03 02:34:23;;;;;;;76.60;5.67;;;19.90;47.00;;;;;;6280663;22;20406;-84
2022/07/03 02:36:58;;;;;;;67.80;5.20;;;19.90;48.10;;;;;;6280962;22;20420;-84
2022/07/03 02:39:43;;;;;;;68.20;4.27;;;19.80;48.80;;;;;;6281358;22;20898;-84
2022/07/03 02:42:20;;;;;;;73.93;5.10;;;19.80;48.40;;;;;;6281946;22;20645;-84
2022/07/03 02:44:48;;;;;;;67.60;4.80;;;19.90;48.20;;;;;;6254100;22;20416;-84
2022/07/03 02:47:32;;;;;;;70.50;4.97;;;19.80;48.60;;;;;;6280601;22;20384;-84
2022/07/03 02:50:13;;;;;;;67.83;4.13;;;19.80;48.90;;;;;;6254028;22;20379;-84
2022/07/03 02:52:46;;;;;;;69.33;5.43;;;19.80;49.80;;;;;;6281442;22;20402;-84
2022/07/03 02:55:33;;;;;;;66.70;4.03;;;19.80;50.40;;;;;;6281199;22;20676;-84
2022/07/03 02:58:20;;;;;;;69.10;4.40;;;19.70;51.10;;;;;;6255176;22;20851;-84
2022/07/03 03:01:06;;;;;;;70.23;5.50;;;19.70;52.80;;;;;;6255469;22;20372;-84
2022/07/03 03:03:33;;;;;;;70.30;5.83;;;19.70;53.40;;;;;;6281396;22;20355;-84
2022/07/03 03:06:14;;;;;;;66.67;4.33;;;19.60;53.90;;;;;;6281670;22;20368;-84
2022/07/03 03:08:52;;;;;;;67.67;4.67;;;19.50;56.00;;;;;;6281383;22;20462;-84
2022/07/03 03:11:43;;;;;;;71.13;4.23;;;19.50;55.90;;;;;;6253732;22;20384;-84
2022/07/03 03:14:15;;;;;;;68.30;4.83;;;19.50;55.90;;;;;;6254170;22;20412;-84
2022/07/03 03:16:52;;;;;;;70.47;5.17;;;19.50;56.60;;;;;;6254623;22;20390;-84
2022/07/03 03:19:25;;;;;;;66.50;4.30;;;19.50;56.80;;;;;;6281494;22;20391;-84
2022/07/03 03:22:26;;;;;;;67.17;4.50;;;19.50;56.50;;;;;;6254184;22;20666;-84
2022/07/03 03:24:52;;;;;;;66.23;4.33;;;19.40;57.70;;;;;;6232684;22;20461;-84
2022/07/03 03:27:21;;;;;;;68.00;4.60;;;19.40;58.10;;;;;;6281013;22;20411;-84
2022/07/03 03:29:54;;;;;;;65.60;4.50;;;19.40;57.60;;;;;;6281333;22;20858;-84
2022/07/03 03:32:24;;;;;;;67.37;5.13;;;19.30;59.20;;;;;;6254078;22;20398;-84
2022/07/03 03:34:53;;;;;;;66.43;4.13;;;19.30;58.50;;;;;;6281880;22;20432;-84
2022/07/03 03:37:21;;;;;;;67.50;5.30;;;19.30;60.40;;;;;;6254590;22;20390;-84
2022/07/03 03:39:47;;;;;;;69.80;6.47;;;19.30;59.90;;;;;;6282313;22;20385;-84
2022/07/03 03:42:15;;;;;;;66.60;6.30;;;19.30;60.30;;;;;;6282960;22;20456;-84
2022/07/03 03:44:44;;;;;;;67.40;5.40;;;19.30;61.40;;;;;;6282679;22;20131;-84
2022/07/03 03:47:13;;;;;;;68.50;6.30;;;19.30;61.40;;;;;;6255487;22;20486;-84
2022/07/03 03:49:39;;;;;;;67.70;6.70;;;19.30;61.30;;;;;;6281899;22;20362;-84
2022/07/03 03:52:08;;;;;;;70.77;6.77;;;19.30;60.30;;;;;;6282107;22;20362;-84
2022/07/03 03:54:33;;;;;;;67.70;8.07;;;19.30;61.60;;;;;;6282173;22;20143;-84
2022/07/03 03:57:20;;;;;;;70.80;9.00;;;19.20;64.00;;;;;;6281601;22;20401;-84
2022/07/03 03:59:53;;;;;;;68.63;9.80;;;19.20;65.30;;;;;;6282503;22;20163;-84
2022/07/03 04:02:19;;;;;;;71.47;10.40;;;19.20;64.80;;;;;;6282314;22;20718;-84
2022/07/03 04:04:53;;;;;;;70.67;13.53;;;19.20;67.80;;;;;;6281687;22;20366;-84
2022/07/03 04:07:22;;;;;;;69.07;12.97;;;19.20;67.20;;;;;;6281825;22;20155;-84
2022/07/03 04:09:50;;;;;;;69.17;12.83;;;19.20;67.10;;;;;;6282227;22;20442;-84
2022/07/03 04:12:16;;;;;;;70.20;15.37;;;19.30;67.20;;;;;;6282302;22;20674;-84
2022/07/03 04:14:45;;;;;;;72.47;13.10;;;19.30;67.40;;;;;;6255552;22;20370;-84
2022/07/03 04:17:17;;;;;;;71.47;16.30;;;19.30;67.70;;;;;;6282998;22;20228;-84
2022/07/03 04:19:43;;;;;;;69.27;14.00;;;19.30;69.40;;;;;;6255825;22;20369;-84
2022/07/03 04:22:11;;;;;;;74.50;13.37;;;19.30;70.30;;;;;;6255939;22;20703;-84
2022/07/03 04:24:55;;;;;;;69.70;13.47;;;19.30;71.50;;;;;;6282839;22;20185;-84
2022/07/03 04:27:24;;;;;;;69.00;13.23;;;19.30;70.60;;;;;;6282064;22;20399;-84
2022/07/03 04:29:55;;;;;;;70.90;14.13;;;19.30;71.60;;;;;;6282956;22;20359;-84
2022/07/03 04:32:29;;;;;;;70.80;14.50;;;19.30;73.90;;;;;;6283587;22;20339;-84
2022/07/03 04:34:58;;;;;;;69.97;12.30;;;19.30;75.10;;;;;;6284035;22;20338;-84
2022/07/03 04:37:23;;;;;;;72.33;16.57;;;19.40;75.20;;;;;;6284340;22;20392;-84
2022/07/03 04:39:52;;;;;;;75.87;17.10;;;19.40;77.00;;;;;;6284434;22;20363;-84
2022/07/03 04:42:24;;;;;;;70.67;14.00;;;19.50;77.90;;;;;;6284413;22;20145;-84
2022/07/03 04:44:49;;;;;;;70.27;12.73;;;19.60;77.70;;;;;;6279835;22;20387;-84
2022/07/03 04:47:16;;;;;;;68.70;12.80;;;19.70;77.90;;;;;;6281471;22;20384;-84
2022/07/03 04:49:47;;;;;;;70.20;11.60;;;19.70;76.80;;;;;;6282371;22;20213;-84
2022/07/03 04:52:13;;;;;;;70.23;10.87;;;19.70;78.00;;;;;;6281642;22;20362;-84
2022/07/03 04:54:44;;;;;;;69.10;12.33;;;19.60;79.10;;;;;;6253695;22;20366;-84
2022/07/03 04:57:10;;;;;;;67.47;8.80;;;19.60;80.40;;;;;;6281521;22;20399;-84
2022/07/03 04:59:38;;;;;;;67.37;9.70;;;19.60;82.10;;;;;;6255277;22;20390;-84
2022/07/03 05:02:04;;;;;;;70.90;11.73;;;19.70;88.10;;;;;;6283308;22;20528;-84
2022/07/03 05:04:33;;;;;;;68.97;11.07;;;20.00;88.20;;;;;;6282966;22;20441;-84
2022/07/03 05:07:02;;;;;;;71.97;11.03;;;20.30;83.60;;;;;;6282911;22;20394;-84
2022/07/03 05:09:43;;;;;;;67.57;8.27;;;20.60;76.60;;;;;;6283217;22;20367;-84
2022/07/03 05:12:17;;;;;;;66.10;4.70;;;20.90;65.70;;;;;;6281844;22;20815;-84
2022/07/03 05:14:48;;;;;;;66.20;4.63;;;21.10;53.40;;;;;;6279293;22;20359;-84
2022/07/03 05:17:13;;;;;;;69.90;4.87;;;21.10;53.50;;;;;;6279231;22;20421;-85
2022/07/03 05:19:42;;;;;;;68.57;7.67;;;21.10;48.60;;;;;;6280386;22;20363;-84
2022/07/03 05:22:11;;;;;;;68.27;5.97;;;21.00;52.30;;;;;;6278895;22;20135;-84
2022/07/03 05:27:47;;;;;;;66.70;4.30;;;20.90;48.20;;;;;;6250673;22;20541;-84
2022/07/03 05:30:29;;;;;;;66.50;3.87;;;20.90;45.80;;;;;;6250811;22;20374;-84
2022/07/03 05:33:07;;;;;;;66.50;4.50;;;20.90;46.80;;;;;;6250721;22;20416;-85
2022/07/03 05:35:38;;;;;;;66.97;4.17;;;20.90;44.90;;;;;;6278306;22;20359;-84
2022/07/03 05:41:27;;;;;;;68.73;5.00;;;20.70;44.80;;;;;;6278047;22;20417;-84
2022/07/03 05:43:53;;;;;;;65.97;4.10;;;20.60;48.40;;;;;;6277562;22;20741;-84
2022/07/03 05:47:37;;;;;;;65.80;3.90;;;20.60;47.70;;;;;;6278229;22;20346;-84
2022/07/03 05:49:59;;;;;;;;;;;;;;;;;;;;;
2022/07/03 05:52:40;;;;;;;68.00;4.70;;;20.50;46.90;;;;;;6277843;22;20766;-84
2022/07/03 05:55:28;;;;;;;67.87;4.20;;;20.50;48.70;;;;;;6277450;22;20347;-84
2022/07/03 05:57:54;;;;;;;68.07;4.73;;;20.40;49.80;;;;;;6277739;22;20387;-84
2022/07/03 06:00:37;;;;;;;69.77;4.93;;;20.40;48.00;;;;;;6278064;22;20358;-84
2022/07/03 06:03:06;;;;;;;66.77;4.50;;;20.30;49.30;;;;;;6277193;22;20152;-84
2022/07/03 06:05:32;;;;;;;67.63;5.47;;;20.30;54.60;;;;;;6278413;22;20703;-84
2022/07/03 06:07:59;;;;;;;67.90;4.60;;;20.30;54.20;;;;;;6278538;22;20394;-84
2022/07/03 06:10:25;;;;;;;68.00;4.97;;;20.30;53.70;;;;;;6284086;22;20362;-84
2022/07/03 06:13:03;;;;;;;65.80;4.30;;;20.30;49.50;;;;;;6281428;22;20405;-84
2022/07/03 06:15:31;;;;;;;67.20;4.10;;;20.20;50.40;;;;;;6251903;22;20365;-84
2022/07/03 06:17:58;;;;;;;67.60;4.30;;;20.30;51.70;;;;;;6280514;22;20393;-84
2022/07/03 06:20:23;;;;;;;71.40;4.43;;;20.30;50.50;;;;;;6282489;22;20375;-84
2022/07/03 06:22:52;;;;;;;68.67;4.60;;;20.20;49.00;;;;;;6253486;22;20415;-84
2022/07/03 06:25:20;;;;;;;73.40;9.13;;;20.20;50.70;;;;;;6278268;22;20166;-84
2022/07/03 06:27:46;;;;;;;67.80;6.60;;;20.20;55.40;;;;;;6279018;22;20398;-84
2022/07/03 06:30:20;;;;;;;66.50;4.43;;;20.20;53.50;;;;;;6277806;22;20375;-84
2022/07/03 06:32:59;;;;;;;65.93;4.47;;;20.30;47.10;;;;;;6278130;22;20170;-84
2022/07/03 06:35:25;;;;;;;68.53;4.40;;;20.30;47.60;;;;;;6252055;22;20427;-84
2022/07/03 06:37:54;;;;;;;67.23;3.90;;;20.30;48.60;;;;;;6279515;22;20382;-84
2022/07/03 06:40:25;;;;;;;71.13;5.20;;;20.30;47.20;;;;;;6252220;22;20210;-84
2022/07/03 06:42:57;;;;;;;67.70;5.20;;;20.30;49.30;;;;;;6279584;22;20335;-84
2022/07/03 06:45:28;;;;;;;71.70;8.27;;;20.30;50.20;;;;;;6278970;22;20686;-87
2022/07/03 06:47:57;;;;;;;72.87;12.10;;;20.30;53.90;;;;;;6251467;22;20532;-84
2022/07/03 06:50:23;;;;;;;68.07;5.70;;;20.30;57.10;;;;;;6281173;22;20715;-84
2022/07/03 06:52:57;;;;;;;69.60;5.70;;;20.40;51.20;;;;;;6281948;22;20411;-84
2022/07/03 06:55:22;;;;;;;71.40;5.00;;;20.30;47.40;;;;;;6286806;22;20299;-84
2022/07/03 06:57:57;;;;;;;68.90;4.40;;;20.40;48.20;;;;;;6259734;22;20405;-84
2022/07/03 07:00:25;;;;;;;67.83;4.17;;;20.40;45.90;;;;;;6286105;22;20151;-84
2022/07/03 07:02:54;;;;;;;67.17;5.40;;;20.40;46.10;;;;;;6283819;22;20743;-84
2022/07/03 07:05:22;;;;;;;70.37;4.73;;;20.40;47.20;;;;;;6257978;22;20761;-84
2022/07/03 07:07:48;;;;;;;66.87;5.03;;;20.40;45.20;;;;;;6281408;22;20478;-84
2022/07/03 07:10:35;;;;;;;68.80;4.63;;;20.50;48.90;;;;;;6282933;22;20365;-84
2022/07/03 07:13:01;;;;;;;67.80;4.60;;;20.60;42.00;;;;;;6284793;22;20405;-84
2022/07/03 07:15:33;;;;;;;68.17;4.80;;;20.50;37.60;;;;;;6284010;22;20717;-84
2022/07/03 07:17:59;;;;;;;68.20;4.63;;;20.60;41.20;;;;;;6255585;22;20165;-84
2022/07/03 07:20:33;;;;;;;68.23;3.93;;;20.60;38.20;;;;;;6284462;22;20356;-84
2022/07/03 07:22:59;;;;;;;76.03;5.37;;;20.70;39.90;;;;;;6282272;22;20499;-84
2022/07/03 07:28:57;;;;;;;67.20;4.70;;;20.80;32.40;;;;;;6197329;22;20170;-84
2022/07/03 07:31:41;;;;;;;66.80;4.20;;;20.80;33.80;;;;;;6282424;22;20395;-84
2022/07/03 07:35:13;;;;;;;;;;;;;;;;;;;;;
2022/07/03 07:37:44;;;;;;;71.30;5.40;;;20.80;33.30;;;;;;6156964;23;20491;-90
2022/07/03 07:40:28;;;;;;;70.33;5.43;;;20.80;35.40;;;;;;6154100;23;20866;-90
2022/07/03 07:43:12;;;;;;;68.10;4.10;;;20.90;35.60;;;;;;6129035;23;20375;-90
2022/07/03 07:46:22;;;;;;;67.77;5.20;;;20.90;37.00;;;;;;6154048;23;20486;-90
2022/07/03 07:49:14;;;;;;;67.77;4.23;;;21.10;38.80;;;;;;6154251;23;20863;-91
2022/07/03 07:51:45;;;;;;;68.43;4.13;;;21.10;29.50;;;;;;6130376;23;20724;-91
2022/07/03 07:54:54;;;;;;;66.70;4.33;;;21.10;34.50;;;;;;6129029;23;20504;-91
2022/07/03 07:57:52;;;;;;;66.73;3.90;;;21.20;35.40;;;;;;6128822;23;20393;-90
2022/07/03 08:00:22;;;;;;;75.83;4.63;;;21.30;28.90;;;;;;6220169;22;20367;-90
2022/07/03 08:05:45;;;;;;;66.63;4.00;;;21.30;30.50;;;;;;6278107;22;20842;-91
2022/07/03 08:08:14;;;;;;;68.00;3.43;;;21.30;29.90;;;;;;6251064;22;20480;-90
2022/07/03 08:10:57;;;;;;;68.80;4.30;;;21.40;29.10;;;;;;6279733;22;20361;-91
2022/07/03 08:13:23;;;;;;;66.50;3.10;;;21.40;26.80;;;;;;6278029;22;20520;-91
2022/07/03 08:15:49;;;;;;;66.67;4.20;;;21.40;24.40;;;;;;6280025;22;20389;-91
2022/07/03 08:18:29;;;;;;;70.10;3.70;;;21.40;23.70;;;;;;6280975;22;20382;-92
2022/07/03 08:21:00;;;;;;;66.93;3.87;;;21.50;25.90;;;;;;6278266;22;20123;-90
2022/07/03 08:23:26;;;;;;;68.43;3.20;;;21.60;21.00;;;;;;6252891;22;20381;-91
2022/07/03 08:28:22;;;;;;;67.03;5.70;;;21.60;18.80;;;;;;6276282;22;20218;-83
2022/07/03 08:30:48;;;;;;;68.03;4.67;;;21.60;13.60;;;;;;6282891;22;20362;-84
2022/07/03 08:33:14;;;;;;;69.07;4.97;;;21.70;17.30;;;;;;6257151;22;20179;-83
2022/07/03 08:35:40;;;;;;;69.17;8.23;;;21.60;15.80;;;;;;6283464;22;20362;-84
2022/07/03 08:38:05;;;;;;;68.10;9.47;;;21.60;13.40;;;;;;6283683;22;20405;-83
2022/07/03 08:40:31;;;;;;;67.77;9.50;;;21.60;2.80;;;;;;6256716;22;20144;-83
2022/07/03 08:43:01;;;;;;;66.90;7.07;;;21.60;8.70;;;;;;6281957;22;20666;-84
2022/07/03 08:45:28;;;;;;;70.17;9.90;;;21.80;13.40;;;;;;6254680;22;20404;-84
2022/07/03 08:47:55;;;;;;;69.47;11.30;;;21.80;5.90;;;;;;6281611;22;20390;-84
2022/07/03 08:50:21;;;;;;;69.40;10.50;;;21.90;5.10;;;;;;6228703;22;20374;-83
2022/07/03 08:52:47;;;;;;;71.33;12.87;;;21.90;6.80;;;;;;6282269;22;20402;-83
2022/07/03 08:55:14;;;;;;;75.50;12.00;;;22.00;6.30;;;;;;6283662;22;20438;-83
2022/07/03 08:57:58;;;;;;;69.70;12.60;;;22.00;5.00;;;;;;5178321;27;20599;-82
2022/07/03 09:00:26;;;;;;;67.83;6.77;;;22.10;4.80;;;;;;5178284;27;20394;-83
2022/07/03 09:02:51;;;;;;;68.87;10.60;;;22.20;2.00;;;;;;5176817;27;20397;-84
2022/07/03 09:05:18;;;;;;;69.80;7.10;;;22.30;2.10;;;;;;5177939;27;20472;-84
2022/07/03 09:07:45;;;;;;;68.50;6.27;;;22.40;1.00;;;;;;5160142;27;20189;-85
2022/07/03 09:10:14;;;;;;;67.47;6.03;;;22.40;1.00;;;;;;5179080;27;20520;-84
2022/07/03 09:12:42;;;;;;;67.00;4.03;;;22.60;1.00;;;;;;5178661;27;20488;-84
2022/07/03 09:15:09;;;;;;;66.87;3.03;;;22.60;1.00;;;;;;5176864;27;20959;-83
2022/07/03 09:17:35;;;;;;;66.93;4.70;;;22.70;1.00;;;;;;5178042;27;20452;-83
2022/07/03 09:20:05;;;;;;;66.80;4.13;;;22.80;1.00;;;;;;5180985;27;20827;-83
2022/07/03 09:22:37;;;;;;;67.33;3.63;;;22.90;1.00;;;;;;5179259;27;20163;-84
2022/07/03 09:25:08;;;;;;;67.33;4.20;;;22.90;1.00;;;;;;5161890;27;20413;-83
2022/07/03 09:27:35;;;;;;;65.70;3.40;;;23.00;1.00;;;;;;5179905;27;20436;-84
2022/07/03 09:30:06;;;;;;;66.53;4.67;;;23.20;1.00;;;;;;5180623;27;20458;-83
2022/07/03 09:32:38;;;;;;;67.33;5.50;;;23.30;1.00;;;;;;5162673;27;20409;-84
2022/07/03 09:35:14;;;;;;;66.50;3.00;;;23.50;1.00;;;;;;5159980;27;20496;-84
2022/07/03 09:37:41;;;;;;;70.27;4.03;;;23.70;1.00;;;;;;5179885;27;20465;-84
2022/07/03 09:40:07;;;;;;;67.50;2.87;;;23.80;1.00;;;;;;5182690;27;20394;-84
2022/07/03 09:42:33;;;;;;;65.87;3.00;;;23.90;1.00;;;;;;5182935;27;20788;-84
2022/07/03 09:44:58;;;;;;;66.80;2.70;;;24.00;1.00;;;;;;5186856;27;20396;-85
2022/07/03 09:47:25;;;;;;;66.90;3.23;;;24.00;1.00;;;;;;5167597;27;20185;-86
2022/07/03 09:49:53;;;;;;;68.37;3.30;;;24.10;1.00;;;;;;5181524;27;20161;-84
2022/07/03 09:52:37;;;;;;;67.10;2.80;;;24.20;1.00;;;;;;5176713;27;20426;-86
2022/07/03 09:55:09;;;;;;;67.67;2.80;;;24.40;1.00;;;;;;5177857;27;20380;-86
2022/07/03 09:57:48;;;;;;;67.77;3.47;;;24.60;1.00;;;;;;5177679;27;20458;-85
2022/07/03 10:00:38;;;;;;;68.53;2.93;;;24.80;1.00;;;;;;5160637;27;20896;-85
2022/07/03 10:03:10;;;;;;;65.80;2.57;;;25.00;1.00;;;;;;5176751;27;20885;-86
2022/07/03 10:06:02;;;;;;;67.73;2.60;;;25.20;1.00;;;;;;5176942;27;20974;-86
2022/07/03 10:08:29;;;;;;;68.03;2.87;;;25.30;1.00;;;;;;5152326;27;20442;-86
2022/07/03 10:10:54;;;;;;;66.50;2.50;;;25.50;1.00;;;;;;5164520;27;20430;-85
2022/07/03 10:13:28;;;;;;;67.23;2.40;;;25.70;1.00;;;;;;5160909;27;20409;-86
2022/07/03 10:15:54;;;;;;;66.50;2.57;;;25.80;1.00;;;;;;5161658;27;20174;-87
2022/07/03 10:18:22;;;;;;;67.20;2.37;;;26.00;1.00;;;;;;5162492;27;20514;-86
2022/07/03 10:20:53;;;;;;;66.93;3.07;;;26.10;1.00;;;;;;5142782;27;20401;-86
2022/07/03 10:23:27;;;;;;;69.33;2.40;;;26.40;1.00;;;;;;5163858;27;20402;-86
2022/07/03 10:25:53;;;;;;;66.30;2.77;;;26.50;1.00;;;;;;5162379;27;20445;-85
2022/07/03 10:28:25;;;;;;;67.10;3.03;;;26.60;1.00;;;;;;5165241;27;20425;-86
2022/07/03 10:31:28;;;;;;;66.30;2.77;;;26.50;1.00;;;;;;5140440;27;20410;-86
2022/07/03 10:45:06;;;;;;;67.20;3.10;;;27.30;1.00;;;;;;4921945;28;20455;-86
2022/07/03 10:47:48;;;;;;;66.87;3.10;;;27.50;1.00;;;;;;5069802;27;20932;-86
2022/07/03 10:50:26;;;;;;;68.57;3.63;;;27.60;1.00;;;;;;5162773;27;20443;-87
2022/07/03 10:52:52;;;;;;;67.23;3.30;;;27.70;1.00;;;;;;5162056;27;20475;-87
2022/07/03 10:55:18;;;;;;;68.20;4.60;;;27.90;1.00;;;;;;5162890;27;20423;-86
2022/07/03 10:58:08;;;;;;;69.97;5.63;;;28.00;1.00;;;;;;5144541;27;20304;-86
2022/07/03 11:00:56;;;;;;;69.27;4.63;;;28.20;1.00;;;;;;5163513;27;20711;-87
2022/07/03 11:04:00;;;;;;;67.27;4.47;;;28.40;1.00;;;;;;5144371;27;20403;-86
2022/07/03 11:06:43;;;;;;;69.67;5.00;;;28.50;1.00;;;;;;5161667;27;20394;-85
2022/07/03 11:09:11;;;;;;;66.93;4.67;;;28.50;1.00;;;;;;5161751;27;20463;-85
2022/07/03 11:11:59;;;;;;;67.10;3.43;;;28.50;1.00;;;;;;5143972;27;20776;-85
2022/07/03 11:14:27;;;;;;;66.17;2.40;;;28.60;1.00;;;;;;5144277;27;20407;-86
2022/07/03 11:17:21;;;;;;;68.20;2.53;;;28.70;1.00;;;;;;5161627;27;20537;-87
2022/07/03 11:22:47;;;;;;;65.70;2.07;;;28.80;1.00;;;;;;5142109;27;20884;-85
2022/07/03 11:25:14;;;;;;;66.87;2.40;;;28.90;1.00;;;;;;5159010;27;20892;-85
2022/07/03 11:27:40;;;;;;;66.37;2.73;;;29.00;1.00;;;;;;5139737;27;20561;-85
2022/07/03 11:30:06;;;;;;;65.60;2.10;;;29.00;1.00;;;;;;5139213;27;20811;-86
2022/07/03 11:32:52;;;;;;;67.00;2.90;;;29.20;1.00;;;;;;5157634;27;20172;-84
2022/07/03 11:35:40;;;;;;;67.77;2.50;;;29.40;1.00;;;;;;5139518;27;20489;-86
2022/07/03 11:38:06;;;;;;;66.17;2.10;;;29.30;1.00;;;;;;5159068;27;20442;-85
2022/07/03 11:40:35;;;;;;;71.03;2.77;;;29.50;1.00;;;;;;5159157;27;20395;-85
2022/07/03 11:43:02;;;;;;;65.57;2.10;;;29.40;1.00;;;;;;5140049;27;20174;-86
2022/07/03 11:45:31;;;;;;;65.77;2.10;;;29.50;1.00;;;;;;5158878;27;20407;-85
2022/07/03 11:47:57;;;;;;;66.40;2.40;;;29.70;1.00;;;;;;5160930;27;20414;-85
2022/07/03 11:50:45;;;;;;;67.10;3.07;;;29.60;1.00;;;;;;5160313;27;20485;-86
2022/07/03 11:53:25;;;;;;;66.20;3.17;;;29.50;1.00;;;;;;5161171;27;20182;-86
2022/07/03 11:56:11;;;;;;;67.10;3.00;;;29.40;1.00;;;;;;5142563;27;20426;-85
2022/07/03 11:58:44;;;;;;;66.73;3.17;;;29.40;1.00;;;;;;5160653;27;20513;-85
2022/07/03 12:01:11;;;;;;;67.60;3.00;;;29.30;1.00;;;;;;5161338;27;20925;-86
2022/07/03 12:03:37;;;;;;;66.90;3.67;;;29.30;1.00;;;;;;5140467;27;20455;-84
2022/07/03 12:06:02;;;;;;;66.53;2.83;;;29.30;1.00;;;;;;5159089;27;20434;-86
2022/07/03 12:08:32;;;;;;;68.03;2.53;;;29.40;1.00;;;;;;5168472;27;20185;-86
2022/07/03 12:11:09;;;;;;;67.90;2.83;;;29.30;1.00;;;;;;5150688;27;20162;-86
2022/07/03 12:13:38;;;;;;;66.90;2.30;;;29.60;1.00;;;;;;5166534;27;20387;-85
2022/07/03 12:16:05;;;;;;;66.17;2.57;;;29.50;1.00;;;;;;5163460;27;20818;-86
2022/07/03 12:18:45;;;;;;;72.70;3.90;;;29.50;1.00;;;;;;5165046;27;20501;-86
2022/07/03 12:21:10;;;;;;;66.90;3.40;;;29.50;1.00;;;;;;5163577;27;20402;-87
2022/07/03 12:23:56;;;;;;;66.47;3.37;;;29.70;1.00;;;;;;5165131;27;20417;-86
2022/07/03 12:26:32;;;;;;;67.20;3.63;;;30.00;1.00;;;;;;5162670;27;20245;-86
2022/07/03 12:29:00;;;;;;;66.97;4.67;;;30.10;1.00;;;;;;5150039;27;20920;-84
2022/07/03 12:31:27;;;;;;;67.70;4.07;;;29.80;1.00;;;;;;5160812;27;20679;-86
2022/07/03 12:33:53;;;;;;;66.50;4.13;;;29.90;1.00;;;;;;5145014;27;20409;-85
2022/07/03 12:36:18;;;;;;;68.87;3.90;;;29.80;1.00;;;;;;5164002;27;20406;-85
2022/07/03 12:38:48;;;;;;;67.27;4.67;;;29.60;1.00;;;;;;5163376;27;20246;-85
2022/07/03 12:41:15;;;;;;;67.37;4.43;;;29.60;1.00;;;;;;5165769;27;20169;-85
2022/07/03 12:43:47;;;;;;;67.00;4.10;;;29.50;1.00;;;;;;5163506;27;20795;-87
2022/07/03 12:46:24;;;;;;;66.77;3.87;;;29.50;1.00;;;;;;5160171;27;20521;-87
2022/07/03 12:48:54;;;;;;;67.50;4.40;;;29.50;1.00;;;;;;5159369;27;20371;-87
2022/07/03 12:51:45;;;;;;;67.67;4.37;;;29.50;1.00;;;;;;5159726;27;20440;-87
2022/07/03 12:54:25;;;;;;;66.87;4.30;;;29.50;1.00;;;;;;5140774;27;20771;-86
2022/07/03 13:00:06;;;;;;;66.60;3.10;;;29.30;1.00;;;;;;5157839;27;20398;-87
2022/07/03 13:02:40;;;;;;;66.20;3.50;;;29.30;1.00;;;;;;5160608;27;20395;-87
2022/07/03 13:05:19;;;;;;;66.60;4.43;;;29.20;1.00;;;;;;5157102;27;20394;-87
2022/07/03 13:07:47;;;;;;;68.70;4.03;;;29.20;1.00;;;;;;5156497;27;20450;-87
2022/07/03 13:10:18;;;;;;;65.70;2.90;;;29.00;1.00;;;;;;5156277;27;20451;-87
2022/07/03 13:12:53;;;;;;;66.40;3.33;;;28.90;1.00;;;;;;5157172;27;20435;-88
2022/07/03 13:19:09;;;;;;;66.73;2.87;;;28.80;1.00;;;;;;5134066;27;20523;-86
2022/07/03 13:21:43;;;;;;;66.23;3.10;;;28.90;1.00;;;;;;5141094;27;20436;-86
2022/07/03 13:24:16;;;;;;;65.83;3.00;;;28.80;1.00;;;;;;5141772;27;20803;-86
2022/07/03 13:26:54;;;;;;;66.67;3.50;;;28.50;1.00;;;;;;5141201;27;20458;-86
2022/07/03 13:29:35;;;;;;;66.80;2.97;;;28.50;1.00;;;;;;5139825;27;20904;-86
2022/07/03 13:32:19;;;;;;;67.33;3.00;;;28.50;1.00;;;;;;5158236;27;20375;-85
2022/07/03 13:34:44;;;;;;;66.40;3.40;;;28.30;1.00;;;;;;5141882;27;20451;-86
2022/07/03 13:37:21;;;;;;;66.30;2.40;;;28.10;1.00;;;;;;5161460;27;20426;-86
2022/07/03 13:39:46;;;;;;;68.47;2.37;;;28.00;1.00;;;;;;5140142;27;20642;-86
2022/07/03 13:42:17;;;;;;;67.30;2.37;;;27.90;1.00;;;;;;5161562;27;20399;-87
2022/07/03 13:44:51;;;;;;;65.77;2.00;;;28.00;1.00;;;;;;5143602;27;20176;-86
2022/07/03 13:49:48;;;;;;;66.60;2.73;;;27.90;1.00;;;;;;5082892;28;20457;-84
2022/07/03 13:52:14;;;;;;;68.00;1.90;;;27.60;1.00;;;;;;5089542;28;20466;-85